createdAt,value
2017-02-02T00:00:13.931Z,0
2017-02-02T00:01:24.731Z,0
2017-02-02T00:02:35.369Z,0
2017-02-02T00:03:45.616Z,0
2017-02-02T00:04:55.868Z,0
2017-02-02T00:06:06.128Z,0
2017-02-02T00:07:16.573Z,0
2017-02-02T00:08:27.252Z,0
2017-02-02T00:09:37.580Z,0
2017-02-02T00:10:48.238Z,0
2017-02-02T00:11:58.895Z,0
2017-02-02T00:13:09.918Z,0
2017-02-02T00:14:19.465Z,0
2017-02-02T00:15:29.782Z,0
2017-02-02T00:16:40.053Z,0
2017-02-02T00:17:50.595Z,0
2017-02-02T00:19:01.222Z,0
2017-02-02T00:20:11.884Z,0
2017-02-02T00:21:22.131Z,0
2017-02-02T00:22:32.789Z,0
2017-02-02T00:23:43.454Z,0
2017-02-02T00:24:53.823Z,0
2017-02-02T00:26:04.102Z,0
2017-02-02T00:27:14.760Z,0
2017-02-02T00:28:25.056Z,0
2017-02-02T00:29:35.724Z,0
2017-02-02T00:30:46.643Z,0
2017-02-02T00:31:56.907Z,0
2017-02-02T00:33:07.182Z,0
2017-02-02T00:34:17.543Z,0
2017-02-02T00:35:28.238Z,0
2017-02-02T00:36:39.161Z,0
2017-02-02T00:37:49.808Z,0
2017-02-02T00:39:00.081Z,0
2017-02-02T00:40:10.332Z,0
2017-02-02T00:41:21.008Z,0
2017-02-02T00:42:31.617Z,0
2017-02-02T00:43:42.269Z,0
2017-02-02T00:44:52.524Z,0
2017-02-02T00:46:02.792Z,0
2017-02-02T00:47:13.067Z,0
2017-02-02T00:48:23.288Z,0
2017-02-02T00:49:33.545Z,0
2017-02-02T00:50:43.803Z,0
2017-02-02T00:51:53.669Z,0
2017-02-02T00:53:03.935Z,0
2017-02-02T00:54:14.526Z,0
2017-02-02T00:55:24.777Z,0
2017-02-02T00:56:34.642Z,0
2017-02-02T00:57:45.279Z,0
2017-02-02T00:58:55.908Z,0
2017-02-02T01:00:05.930Z,0
2017-02-02T01:01:16.200Z,0
2017-02-02T01:02:26.855Z,0
2017-02-02T01:03:36.731Z,0
2017-02-02T01:04:46.606Z,0
2017-02-02T01:05:57.030Z,0
2017-02-02T01:07:07.671Z,0
2017-02-02T01:08:17.920Z,0
2017-02-02T01:09:28.191Z,0
2017-02-02T01:10:38.060Z,0
2017-02-02T01:11:48.584Z,0
2017-02-02T01:12:59.268Z,0
2017-02-02T01:14:09.150Z,0
2017-02-02T01:15:19.812Z,0
2017-02-02T01:16:30.062Z,0
2017-02-02T01:17:40.995Z,0
2017-02-02T01:18:51.650Z,0
2017-02-02T01:20:01.955Z,0
2017-02-02T01:21:12.609Z,0
2017-02-02T01:22:22.885Z,0
2017-02-02T01:23:33.432Z,0
2017-02-02T01:24:44.078Z,0
2017-02-02T01:25:54.352Z,0
2017-02-02T01:27:04.614Z,0
2017-02-02T01:28:15.271Z,0
2017-02-02T01:29:25.654Z,0
2017-02-02T01:30:35.933Z,0
2017-02-02T01:31:45.862Z,0
2017-02-02T01:32:56.168Z,0
2017-02-02T01:34:06.812Z,0
2017-02-02T01:35:17.413Z,0
2017-02-02T01:36:28.066Z,0
2017-02-02T01:37:37.923Z,0
2017-02-02T01:38:47.799Z,0
2017-02-02T01:39:58.453Z,0
2017-02-02T01:41:08.420Z,0
2017-02-02T01:42:19.073Z,0
2017-02-02T01:43:29.325Z,0
2017-02-02T01:44:39.589Z,0
2017-02-02T01:45:50.267Z,0
2017-02-02T01:47:01.291Z,0
2017-02-02T01:48:11.946Z,0
2017-02-02T01:49:21.822Z,0
2017-02-02T01:50:31.705Z,0
2017-02-02T01:51:41.579Z,0
2017-02-02T01:52:51.989Z,0
2017-02-02T01:54:01.854Z,0
2017-02-02T01:55:11.709Z,0
2017-02-02T01:56:21.199Z,0
2017-02-02T01:57:31.651Z,0
2017-02-02T01:58:42.476Z,0
2017-02-02T01:59:52.674Z,0
2017-02-02T02:01:02.770Z,0
2017-02-02T02:02:12.044Z,0
2017-02-02T02:03:22.920Z,0
2017-02-02T02:04:33.647Z,0
2017-02-02T02:05:43.919Z,0
2017-02-02T02:06:54.243Z,0
2017-02-02T02:08:04.904Z,0
2017-02-02T02:09:14.771Z,0
2017-02-02T02:10:25.313Z,0
2017-02-02T02:11:35.575Z,0
2017-02-02T02:12:45.827Z,0
2017-02-02T02:13:55.684Z,0
2017-02-02T02:15:05.553Z,0
2017-02-02T02:16:15.750Z,0
2017-02-02T02:17:25.621Z,0
2017-02-02T02:18:36.264Z,0
2017-02-02T02:19:46.530Z,0
2017-02-02T02:20:56.410Z,0
2017-02-02T02:22:06.817Z,0
2017-02-02T02:23:17.467Z,0
2017-02-02T02:24:28.127Z,0
2017-02-02T02:25:38.780Z,0
2017-02-02T02:26:49.049Z,0
2017-02-02T02:28:00.003Z,0
2017-02-02T02:29:10.654Z,0
2017-02-02T02:30:20.137Z,0
2017-02-02T02:31:30.789Z,0
2017-02-02T02:32:41.058Z,0
2017-02-02T02:33:52.029Z,0
2017-02-02T02:35:01.899Z,0
2017-02-02T02:36:11.771Z,0
2017-02-02T02:37:21.255Z,0
2017-02-02T02:38:31.115Z,0
2017-02-02T02:39:42.067Z,0
2017-02-02T02:40:52.340Z,0
2017-02-02T02:42:02.979Z,0
2017-02-02T02:43:13.231Z,0
2017-02-02T02:44:23.093Z,0
2017-02-02T02:45:33.656Z,0
2017-02-02T02:46:44.368Z,0
2017-02-02T02:47:54.651Z,0
2017-02-02T02:49:04.898Z,0
2017-02-02T02:50:15.540Z,0
2017-02-02T02:51:25.578Z,0
2017-02-02T02:52:36.230Z,0
2017-02-02T02:53:46.871Z,0
2017-02-02T02:54:57.525Z,0
2017-02-02T02:56:07.779Z,0
2017-02-02T02:57:18.830Z,0
2017-02-02T02:58:29.484Z,0
2017-02-02T02:59:39.724Z,0
2017-02-02T03:00:49.988Z,0
2017-02-02T03:01:59.483Z,0
2017-02-02T03:03:10.381Z,0
2017-02-02T03:04:20.264Z,0
2017-02-02T03:05:30.899Z,0
2017-02-02T03:06:41.552Z,0
2017-02-02T03:07:51.808Z,0
2017-02-02T03:09:02.437Z,0
2017-02-02T03:10:11.927Z,0
2017-02-02T03:11:22.605Z,0
2017-02-02T03:12:33.280Z,0
2017-02-02T03:13:43.926Z,0
2017-02-02T03:14:54.428Z,0
2017-02-02T03:16:03.920Z,0
2017-02-02T03:17:14.559Z,0
2017-02-02T03:18:25.197Z,0
2017-02-02T03:19:35.467Z,0
2017-02-02T03:20:46.404Z,0
2017-02-02T03:21:57.038Z,0
2017-02-02T03:23:07.675Z,0
2017-02-02T03:24:17.163Z,0
2017-02-02T03:25:27.415Z,0
2017-02-02T03:26:38.406Z,0
2017-02-02T03:27:48.651Z,0
2017-02-02T03:28:58.908Z,0
2017-02-02T03:30:09.549Z,0
2017-02-02T03:31:19.403Z,0
2017-02-02T03:32:29.973Z,0
2017-02-02T03:33:40.630Z,0
2017-02-02T03:34:51.313Z,0
2017-02-02T03:36:01.560Z,0
2017-02-02T03:37:12.222Z,0
2017-02-02T03:38:22.343Z,0
2017-02-02T03:39:32.979Z,0
2017-02-02T03:40:43.620Z,0
2017-02-02T03:41:53.481Z,0
2017-02-02T03:43:03.733Z,0
2017-02-02T03:44:14.682Z,0
2017-02-02T03:45:24.948Z,0
2017-02-02T03:46:35.579Z,0
2017-02-02T03:47:45.452Z,0
2017-02-02T03:48:55.701Z,0
2017-02-02T03:50:06.295Z,0
2017-02-02T03:51:16.471Z,0
2017-02-02T03:52:27.111Z,0
2017-02-02T03:53:37.754Z,0
2017-02-02T03:54:48.009Z,0
2017-02-02T03:55:58.819Z,0
2017-02-02T03:57:09.503Z,0
2017-02-02T03:58:19.776Z,0
2017-02-02T03:59:29.664Z,0
2017-02-02T04:00:40.329Z,0
2017-02-02T04:01:50.932Z,0
2017-02-02T04:03:01.584Z,0
2017-02-02T04:04:11.897Z,0
2017-02-02T04:05:22.155Z,0
2017-02-02T04:06:32.415Z,0
2017-02-02T04:07:42.419Z,0
2017-02-02T04:08:52.663Z,0
2017-02-02T04:10:03.338Z,0
2017-02-02T04:11:13.607Z,0
2017-02-02T04:12:23.894Z,0
2017-02-02T04:13:34.887Z,0
2017-02-02T04:14:45.172Z,0
2017-02-02T04:15:55.825Z,0
2017-02-02T04:17:06.091Z,0
2017-02-02T04:18:15.962Z,0
2017-02-02T04:19:26.700Z,0
2017-02-02T04:20:37.366Z,0
2017-02-02T04:21:48.001Z,0
2017-02-02T04:22:57.498Z,0
2017-02-02T04:24:08.139Z,0
2017-02-02T04:25:19.122Z,0
2017-02-02T04:26:29.795Z,0
2017-02-02T04:27:40.040Z,0
2017-02-02T04:28:50.672Z,0
2017-02-02T04:30:00.945Z,0
2017-02-02T04:31:11.446Z,0
2017-02-02T04:32:22.084Z,0
2017-02-02T04:33:32.343Z,0
2017-02-02T04:34:42.981Z,0
2017-02-02T04:35:53.233Z,0
2017-02-02T04:37:03.745Z,0
2017-02-02T04:38:14.020Z,0
2017-02-02T04:39:24.685Z,0
2017-02-02T04:40:34.590Z,0
2017-02-02T04:41:45.239Z,0
2017-02-02T04:42:56.178Z,0
2017-02-02T04:44:06.448Z,0
2017-02-02T04:45:16.704Z,0
2017-02-02T04:46:27.364Z,0
2017-02-02T04:47:37.991Z,0
2017-02-02T04:48:47.774Z,0
2017-02-02T04:49:58.024Z,0
2017-02-02T04:51:08.666Z,0
2017-02-02T04:52:19.060Z,0
2017-02-02T04:53:29.704Z,0
2017-02-02T04:54:40.342Z,0
2017-02-02T04:55:50.995Z,0
2017-02-02T04:57:01.260Z,0
2017-02-02T04:58:11.115Z,0
2017-02-02T04:59:21.754Z,0
2017-02-02T05:00:32.167Z,0
2017-02-02T05:01:42.813Z,0
2017-02-02T05:02:52.673Z,0
2017-02-02T05:04:03.337Z,0
2017-02-02T05:05:13.979Z,0
2017-02-02T05:06:24.929Z,0
2017-02-02T05:07:34.419Z,0
2017-02-02T05:08:45.057Z,0
2017-02-02T05:09:55.369Z,0
2017-02-02T05:11:06.020Z,0
2017-02-02T05:12:17.021Z,0
2017-02-02T05:13:27.665Z,0
2017-02-02T05:14:37.543Z,0
2017-02-02T05:15:48.192Z,0
2017-02-02T05:16:58.441Z,0
2017-02-02T05:18:08.834Z,0
2017-02-02T05:19:19.775Z,0
2017-02-02T05:20:29.635Z,0
2017-02-02T05:21:39.916Z,0
2017-02-02T05:22:50.561Z,0
2017-02-02T05:24:01.515Z,0
2017-02-02T05:25:12.167Z,0
2017-02-02T05:26:22.049Z,0
2017-02-02T05:27:32.317Z,0
2017-02-02T05:28:42.180Z,0
2017-02-02T05:29:52.840Z,0
2017-02-02T05:31:03.499Z,0
2017-02-02T05:32:13.354Z,0
2017-02-02T05:33:23.603Z,0
2017-02-02T05:34:33.469Z,0
2017-02-02T05:35:44.434Z,0
2017-02-02T05:36:55.077Z,0
2017-02-02T05:38:05.717Z,0
2017-02-02T05:39:16.388Z,0
2017-02-02T05:40:27.029Z,0
2017-02-02T05:41:38.018Z,0
2017-02-02T05:42:47.870Z,0
2017-02-02T05:43:57.742Z,0
2017-02-02T05:45:08.393Z,0
2017-02-02T05:46:19.033Z,0
2017-02-02T05:47:29.438Z,0
2017-02-02T05:48:39.696Z,0
2017-02-02T05:49:49.980Z,0
2017-02-02T05:50:59.451Z,0
2017-02-02T05:52:10.088Z,0
2017-02-02T05:53:20.654Z,0
2017-02-02T05:54:30.534Z,0
2017-02-02T05:55:40.782Z,0
2017-02-02T05:56:51.037Z,0
2017-02-02T05:58:01.308Z,0
2017-02-02T05:59:11.937Z,0
2017-02-02T06:00:21.815Z,0
2017-02-02T06:01:32.093Z,0
2017-02-02T06:02:42.754Z,0
2017-02-02T06:03:53.454Z,0
2017-02-02T06:05:03.562Z,0
2017-02-02T06:06:14.212Z,0
2017-02-02T06:07:24.848Z,0
2017-02-02T06:08:35.501Z,0
2017-02-02T06:09:45.748Z,0
2017-02-02T06:10:56.758Z,0
2017-02-02T06:12:07.451Z,0
2017-02-02T06:13:17.730Z,0
2017-02-02T06:14:27.231Z,0
2017-02-02T06:15:37.878Z,0
2017-02-02T06:16:48.341Z,4
2017-02-02T06:17:58.978Z,4
2017-02-02T06:19:09.306Z,4
2017-02-02T06:20:19.592Z,4
2017-02-02T06:21:29.866Z,4
2017-02-02T06:22:40.290Z,4
2017-02-02T06:23:49.776Z,4
2017-02-02T06:25:00.953Z,4
2017-02-02T06:26:11.226Z,4
2017-02-02T06:27:21.928Z,4
2017-02-02T06:28:32.489Z,4
2017-02-02T06:29:42.816Z,4
2017-02-02T06:30:53.063Z,4
2017-02-02T06:32:03.356Z,4
2017-02-02T06:33:13.257Z,4
2017-02-02T06:34:24.199Z,4
2017-02-02T06:35:34.902Z,8
2017-02-02T06:36:45.155Z,8
2017-02-02T06:37:55.424Z,8
2017-02-02T06:39:06.064Z,8
2017-02-02T06:40:16.649Z,8
2017-02-02T06:41:27.297Z,4
2017-02-02T06:42:36.772Z,4
2017-02-02T06:43:46.680Z,8
2017-02-02T06:44:56.961Z,8
2017-02-02T06:46:07.469Z,8
2017-02-02T06:47:16.969Z,8
2017-02-02T06:48:27.626Z,12
2017-02-02T06:49:37.118Z,8
2017-02-02T06:50:47.403Z,12
2017-02-02T06:51:57.783Z,12
2017-02-02T06:53:08.476Z,12
2017-02-02T06:54:18.744Z,16
2017-02-02T06:55:29.006Z,20
2017-02-02T06:56:39.896Z,20
2017-02-02T06:57:50.457Z,24
2017-02-02T06:59:01.131Z,28
2017-02-02T07:00:11.012Z,32
2017-02-02T07:01:21.789Z,36
2017-02-02T07:02:32.462Z,40
2017-02-02T07:03:42.190Z,44
2017-02-02T07:04:52.436Z,48
2017-02-02T07:06:02.679Z,56
2017-02-02T07:07:12.647Z,56
2017-02-02T07:08:23.425Z,64
2017-02-02T07:09:33.841Z,68
2017-02-02T07:10:44.093Z,72
2017-02-02T07:11:54.746Z,80
2017-02-02T07:13:05.033Z,88
2017-02-02T07:14:14.556Z,96
2017-02-02T07:15:24.006Z,104
2017-02-02T07:16:33.871Z,116
2017-02-02T07:17:44.141Z,120
2017-02-02T07:18:54.788Z,132
2017-02-02T07:20:05.088Z,140
2017-02-02T07:21:15.851Z,152
2017-02-02T07:22:26.098Z,164
2017-02-02T07:23:36.337Z,176
2017-02-02T07:24:46.991Z,188
2017-02-02T07:25:57.648Z,204
2017-02-02T07:27:08.754Z,212
2017-02-02T07:28:19.036Z,228
2017-02-02T07:29:29.697Z,236
2017-02-02T07:30:39.198Z,244
2017-02-02T07:31:49.455Z,248
2017-02-02T07:33:00.036Z,252
2017-02-02T07:34:10.293Z,252
2017-02-02T07:35:20.956Z,260
2017-02-02T07:36:30.830Z,272
2017-02-02T07:37:41.508Z,296
2017-02-02T07:38:52.474Z,312
2017-02-02T07:40:03.131Z,320
2017-02-02T07:41:13.013Z,328
2017-02-02T07:42:23.560Z,352
2017-02-02T07:43:34.212Z,368
2017-02-02T07:44:44.832Z,376
2017-02-02T07:45:55.091Z,388
2017-02-02T07:47:05.763Z,424
2017-02-02T07:48:15.930Z,460
2017-02-02T07:49:26.561Z,488
2017-02-02T07:50:37.561Z,516
2017-02-02T07:51:47.825Z,552
2017-02-02T07:52:57.689Z,588
2017-02-02T07:54:07.951Z,596
2017-02-02T07:55:18.620Z,564
2017-02-02T07:56:29.596Z,556
2017-02-02T07:57:39.858Z,604
2017-02-02T07:58:50.111Z,652
2017-02-02T08:00:00.358Z,684
2017-02-02T08:01:10.605Z,720
2017-02-02T08:02:20.979Z,776
2017-02-02T08:03:31.233Z,788
2017-02-02T08:04:41.876Z,768
2017-02-02T08:05:51.733Z,708
2017-02-02T08:07:02.377Z,676
2017-02-02T08:08:12.590Z,668
2017-02-02T08:09:22.879Z,688
2017-02-02T08:10:33.164Z,696
2017-02-02T08:11:43.812Z,684
2017-02-02T08:12:54.484Z,684
2017-02-02T08:14:05.002Z,688
2017-02-02T08:15:14.886Z,688
2017-02-02T08:16:24.769Z,684
2017-02-02T08:17:34.251Z,684
2017-02-02T08:18:44.119Z,680
2017-02-02T08:19:54.673Z,672
2017-02-02T08:21:04.554Z,668
2017-02-02T08:22:14.819Z,648
2017-02-02T08:23:25.500Z,624
2017-02-02T08:24:35.796Z,620
2017-02-02T08:25:46.418Z,624
2017-02-02T08:26:56.683Z,604
2017-02-02T08:28:07.339Z,588
2017-02-02T08:29:17.218Z,576
2017-02-02T08:30:27.882Z,576
2017-02-02T08:31:38.288Z,604
2017-02-02T08:32:48.167Z,604
2017-02-02T08:33:58.476Z,568
2017-02-02T08:35:09.134Z,548
2017-02-02T08:36:19.770Z,564
2017-02-02T08:37:30.529Z,616
2017-02-02T08:38:40.787Z,648
2017-02-02T08:39:51.430Z,664
2017-02-02T08:41:01.739Z,648
2017-02-02T08:42:11.995Z,672
2017-02-02T08:43:22.788Z,688
2017-02-02T08:44:33.018Z,712
2017-02-02T08:45:42.899Z,768
2017-02-02T08:46:52.786Z,800
2017-02-02T08:48:03.040Z,768
2017-02-02T08:49:13.935Z,736
2017-02-02T08:50:24.202Z,736
2017-02-02T08:51:34.085Z,760
2017-02-02T08:52:44.731Z,780
2017-02-02T08:53:55.375Z,780
2017-02-02T08:55:05.543Z,804
2017-02-02T08:56:16.198Z,824
2017-02-02T08:57:26.470Z,812
2017-02-02T08:58:36.334Z,784
2017-02-02T08:59:46.207Z,740
2017-02-02T09:00:56.825Z,704
2017-02-02T09:02:07.138Z,700
2017-02-02T09:03:17.999Z,688
2017-02-02T09:04:27.879Z,652
2017-02-02T09:05:37.373Z,600
2017-02-02T09:06:47.671Z,536
2017-02-02T09:07:58.322Z,500
2017-02-02T09:09:08.565Z,496
2017-02-02T09:10:19.256Z,492
2017-02-02T09:11:29.892Z,480
2017-02-02T09:12:40.410Z,476
2017-02-02T09:13:51.061Z,468
2017-02-02T09:15:01.715Z,492
2017-02-02T09:16:12.390Z,496
2017-02-02T09:17:22.658Z,508
2017-02-02T09:18:33.483Z,548
2017-02-02T09:19:44.126Z,596
2017-02-02T09:20:54.382Z,692
2017-02-02T09:22:04.647Z,708
2017-02-02T09:23:14.526Z,780
2017-02-02T09:24:24.497Z,836
2017-02-02T09:25:35.144Z,872
2017-02-02T09:26:45.416Z,860
2017-02-02T09:27:56.126Z,824
2017-02-02T09:29:06.771Z,924
2017-02-02T09:30:17.194Z,936
2017-02-02T09:31:27.486Z,916
2017-02-02T09:32:38.124Z,904
2017-02-02T09:33:48.776Z,868
2017-02-02T09:34:58.685Z,860
2017-02-02T09:36:08.842Z,820
2017-02-02T09:37:18.699Z,724
2017-02-02T09:38:28.598Z,680
2017-02-02T09:39:38.859Z,684
2017-02-02T09:40:49.519Z,712
2017-02-02T09:42:00.477Z,660
2017-02-02T09:43:11.123Z,624
2017-02-02T09:44:20.613Z,608
2017-02-02T09:45:30.537Z,604
2017-02-02T09:46:41.202Z,604
2017-02-02T09:47:51.415Z,640
2017-02-02T09:49:02.065Z,768
2017-02-02T09:50:12.767Z,960
2017-02-02T09:51:23.427Z,1056
2017-02-02T09:52:33.292Z,1100
2017-02-02T09:53:43.409Z,1136
2017-02-02T09:54:54.059Z,1164
2017-02-02T09:56:04.724Z,1176
2017-02-02T09:57:14.990Z,1092
2017-02-02T09:58:24.852Z,924
2017-02-02T09:59:35.799Z,740
2017-02-02T10:00:46.462Z,728
2017-02-02T10:01:56.333Z,688
2017-02-02T10:03:06.977Z,656
2017-02-02T10:04:17.647Z,668
2017-02-02T10:05:28.174Z,752
2017-02-02T10:06:38.913Z,716
2017-02-02T10:07:49.226Z,700
2017-02-02T10:08:59.865Z,712
2017-02-02T10:10:09.727Z,728
2017-02-02T10:11:20.676Z,756
2017-02-02T10:12:30.933Z,848
2017-02-02T10:13:40.813Z,876
2017-02-02T10:14:51.509Z,920
2017-02-02T10:16:01.769Z,916
2017-02-02T10:17:12.681Z,912
2017-02-02T10:18:23.333Z,928
2017-02-02T10:19:33.600Z,928
2017-02-02T10:20:43.868Z,908
2017-02-02T10:21:54.545Z,896
2017-02-02T10:23:04.959Z,904
2017-02-02T10:24:14.040Z,904
2017-02-02T10:25:23.907Z,904
2017-02-02T10:26:34.567Z,912
2017-02-02T10:27:45.224Z,960
2017-02-02T10:28:56.234Z,1080
2017-02-02T10:30:06.115Z,1140
2017-02-02T10:31:16.010Z,1072
2017-02-02T10:32:26.321Z,1012
2017-02-02T10:33:36.584Z,960
2017-02-02T10:34:46.748Z,888
2017-02-02T10:35:57.406Z,936
2017-02-02T10:37:08.060Z,928
2017-02-02T10:38:17.921Z,944
2017-02-02T10:39:28.189Z,956
2017-02-02T10:40:38.625Z,996
2017-02-02T10:41:48.879Z,1104
2017-02-02T10:42:59.177Z,1236
2017-02-02T10:44:09.048Z,1332
2017-02-02T10:45:19.317Z,1464
2017-02-02T10:46:30.265Z,1552
2017-02-02T10:47:40.153Z,1616
2017-02-02T10:48:50.416Z,1620
2017-02-02T10:50:01.067Z,1648
2017-02-02T10:51:11.729Z,1696
2017-02-02T10:52:22.128Z,1600
2017-02-02T10:53:32.407Z,1496
2017-02-02T10:54:42.666Z,1388
2017-02-02T10:55:52.941Z,1332
2017-02-02T10:57:03.589Z,1308
2017-02-02T10:58:13.664Z,1276
2017-02-02T10:59:23.935Z,1180
2017-02-02T11:00:33.793Z,1076
2017-02-02T11:01:43.272Z,1012
2017-02-02T11:02:53.141Z,972
2017-02-02T11:04:03.640Z,988
2017-02-02T11:05:14.304Z,1008
2017-02-02T11:06:24.576Z,1028
2017-02-02T11:07:35.534Z,1088
2017-02-02T11:08:45.790Z,1176
2017-02-02T11:09:56.211Z,1216
2017-02-02T11:11:06.464Z,1280
2017-02-02T11:12:17.154Z,1316
2017-02-02T11:13:27.425Z,1284
2017-02-02T11:14:37.673Z,1200
2017-02-02T11:15:47.843Z,1140
2017-02-02T11:16:58.093Z,1104
2017-02-02T11:18:07.962Z,1036
2017-02-02T11:19:17.843Z,968
2017-02-02T11:20:28.095Z,912
2017-02-02T11:21:37.830Z,860
2017-02-02T11:22:48.509Z,824
2017-02-02T11:23:59.199Z,796
2017-02-02T11:25:09.482Z,784
2017-02-02T11:26:19.754Z,768
2017-02-02T11:27:30.113Z,756
2017-02-02T11:28:40.768Z,752
2017-02-02T11:29:50.635Z,724
2017-02-02T11:31:00.885Z,716
2017-02-02T11:32:11.562Z,724
2017-02-02T11:33:22.526Z,720
2017-02-02T11:34:32.784Z,704
2017-02-02T11:35:43.044Z,720
2017-02-02T11:36:53.696Z,712
2017-02-02T11:38:03.950Z,696
2017-02-02T11:39:14.526Z,692
2017-02-02T11:40:24.783Z,708
2017-02-02T11:41:35.450Z,708
2017-02-02T11:42:45.325Z,708
2017-02-02T11:43:55.587Z,696
2017-02-02T11:45:06.615Z,680
2017-02-02T11:46:17.260Z,676
2017-02-02T11:47:27.532Z,684
2017-02-02T11:48:37.422Z,696
2017-02-02T11:49:48.367Z,696
2017-02-02T11:50:59.276Z,688
2017-02-02T11:52:09.932Z,688
2017-02-02T11:53:20.231Z,696
2017-02-02T11:54:30.881Z,688
2017-02-02T11:55:41.187Z,696
2017-02-02T11:56:52.091Z,692
2017-02-02T11:58:02.748Z,688
2017-02-02T11:59:13.030Z,652
2017-02-02T12:00:23.299Z,668
2017-02-02T12:01:33.573Z,664
2017-02-02T12:02:43.926Z,672
2017-02-02T12:03:54.569Z,676
2017-02-02T12:05:05.208Z,680
2017-02-02T12:06:15.866Z,684
2017-02-02T12:07:26.139Z,684
2017-02-02T12:08:36.935Z,684
2017-02-02T12:09:47.588Z,684
2017-02-02T12:10:57.877Z,676
2017-02-02T12:12:07.359Z,676
2017-02-02T12:13:17.617Z,672
2017-02-02T12:14:28.240Z,676
2017-02-02T12:15:38.507Z,672
2017-02-02T12:16:48.782Z,664
2017-02-02T12:17:58.702Z,664
2017-02-02T12:19:09.347Z,664
2017-02-02T12:20:19.320Z,664
2017-02-02T12:21:29.198Z,664
2017-02-02T12:22:39.444Z,668
2017-02-02T12:23:49.304Z,660
2017-02-02T12:24:59.186Z,664
2017-02-02T12:26:10.103Z,660
2017-02-02T12:27:20.756Z,660
2017-02-02T12:28:31.428Z,656
2017-02-02T12:29:41.302Z,664
2017-02-02T12:30:50.780Z,656
2017-02-02T12:32:01.339Z,660
2017-02-02T12:33:10.810Z,664
2017-02-02T12:34:20.668Z,668
2017-02-02T12:35:30.927Z,668
2017-02-02T12:36:40.809Z,664
2017-02-02T12:37:51.608Z,668
2017-02-02T12:39:01.871Z,664
2017-02-02T12:40:11.748Z,632
2017-02-02T12:41:22.391Z,592
2017-02-02T12:42:33.027Z,556
2017-02-02T12:43:43.424Z,512
2017-02-02T12:44:53.294Z,488
2017-02-02T12:46:03.563Z,472
2017-02-02T12:47:13.830Z,460
2017-02-02T12:48:24.137Z,452
2017-02-02T12:49:35.160Z,452
2017-02-02T12:50:45.427Z,452
2017-02-02T12:51:56.089Z,460
2017-02-02T12:53:05.968Z,468
2017-02-02T12:54:15.844Z,492
2017-02-02T12:55:26.069Z,528
2017-02-02T12:56:35.949Z,580
2017-02-02T12:57:46.604Z,632
2017-02-02T12:58:56.864Z,664
2017-02-02T13:00:06.731Z,684
2017-02-02T13:01:17.533Z,696
2017-02-02T13:02:28.191Z,704
2017-02-02T13:03:38.847Z,720
2017-02-02T13:04:48.727Z,732
2017-02-02T13:05:58.989Z,760
2017-02-02T13:07:09.220Z,800
2017-02-02T13:08:19.484Z,812
2017-02-02T13:09:29.355Z,864
2017-02-02T13:10:40.061Z,868
2017-02-02T13:11:49.977Z,876
2017-02-02T13:13:00.510Z,884
2017-02-02T13:14:10.777Z,892
2017-02-02T13:15:21.419Z,892
2017-02-02T13:16:31.298Z,896
2017-02-02T13:17:41.596Z,892
2017-02-02T13:18:52.114Z,892
2017-02-02T13:20:02.009Z,884
2017-02-02T13:21:12.295Z,876
2017-02-02T13:22:21.785Z,868
2017-02-02T13:23:32.035Z,860
2017-02-02T13:24:42.652Z,860
2017-02-02T13:25:53.307Z,860
2017-02-02T13:27:03.188Z,864
2017-02-02T13:28:13.876Z,868
2017-02-02T13:29:24.138Z,880
2017-02-02T13:30:35.037Z,888
2017-02-02T13:31:45.737Z,892
2017-02-02T13:32:56.035Z,884
2017-02-02T13:34:06.693Z,880
2017-02-02T13:35:16.563Z,876
2017-02-02T13:36:26.578Z,872
2017-02-02T13:37:37.294Z,864
2017-02-02T13:38:47.553Z,856
2017-02-02T13:39:58.214Z,852
2017-02-02T13:41:08.501Z,848
2017-02-02T13:42:19.522Z,848
2017-02-02T13:43:29.778Z,832
2017-02-02T13:44:40.049Z,816
2017-02-02T13:45:50.697Z,800
2017-02-02T13:47:01.377Z,788
2017-02-02T13:48:11.950Z,772
2017-02-02T13:49:22.234Z,760
2017-02-02T13:50:32.501Z,748
2017-02-02T13:51:42.775Z,744
2017-02-02T13:52:53.449Z,740
2017-02-02T13:54:04.403Z,736
2017-02-02T13:55:15.062Z,732
2017-02-02T13:56:24.947Z,724
2017-02-02T13:57:35.628Z,720
2017-02-02T13:58:46.363Z,716
2017-02-02T13:59:56.930Z,704
2017-02-02T14:01:06.806Z,696
2017-02-02T14:02:17.074Z,692
2017-02-02T14:03:27.770Z,684
2017-02-02T14:04:38.048Z,676
2017-02-02T14:05:48.449Z,668
2017-02-02T14:06:58.713Z,660
2017-02-02T14:08:08.985Z,652
2017-02-02T14:09:19.254Z,652
2017-02-02T14:10:29.914Z,648
2017-02-02T14:11:40.717Z,644
2017-02-02T14:12:50.640Z,640
2017-02-02T14:14:01.328Z,636
2017-02-02T14:15:10.795Z,632
2017-02-02T14:16:21.456Z,632
2017-02-02T14:17:32.046Z,624
2017-02-02T14:18:42.332Z,620
2017-02-02T14:19:52.217Z,612
2017-02-02T14:21:02.092Z,604
2017-02-02T14:22:12.749Z,604
2017-02-02T14:23:23.548Z,600
2017-02-02T14:24:34.203Z,592
2017-02-02T14:25:44.464Z,588
2017-02-02T14:26:54.337Z,584
2017-02-02T14:28:04.600Z,572
2017-02-02T14:29:15.172Z,568
2017-02-02T14:30:25.829Z,560
2017-02-02T14:31:36.091Z,556
2017-02-02T14:32:46.408Z,552
2017-02-02T14:33:56.700Z,548
2017-02-02T14:35:06.889Z,544
2017-02-02T14:36:16.379Z,540
2017-02-02T14:37:26.275Z,544
2017-02-02T14:38:36.176Z,540
2017-02-02T14:39:46.837Z,536
2017-02-02T14:40:57.279Z,528
2017-02-02T14:42:07.556Z,524
2017-02-02T14:43:17.826Z,520
2017-02-02T14:44:28.483Z,516
2017-02-02T14:45:38.743Z,508
2017-02-02T14:46:49.751Z,500
2017-02-02T14:48:00.055Z,492
2017-02-02T14:49:10.322Z,484
2017-02-02T14:50:20.595Z,480
2017-02-02T14:51:31.249Z,468
2017-02-02T14:52:41.650Z,460
2017-02-02T14:53:51.887Z,452
2017-02-02T14:55:01.757Z,436
2017-02-02T14:56:11.621Z,432
2017-02-02T14:57:22.269Z,416
2017-02-02T14:58:32.874Z,408
2017-02-02T14:59:43.541Z,404
2017-02-02T15:00:53.804Z,396
2017-02-02T15:02:04.463Z,388
2017-02-02T15:03:14.337Z,380
2017-02-02T15:04:25.133Z,376
2017-02-02T15:05:35.026Z,372
2017-02-02T15:06:45.683Z,364
2017-02-02T15:07:56.325Z,352
2017-02-02T15:09:06.647Z,348
2017-02-02T15:10:17.413Z,340
2017-02-02T15:11:28.070Z,332
2017-02-02T15:12:38.745Z,332
2017-02-02T15:13:49.399Z,332
2017-02-02T15:14:59.686Z,328
2017-02-02T15:16:10.499Z,324
2017-02-02T15:17:19.999Z,316
2017-02-02T15:18:29.947Z,304
2017-02-02T15:19:40.232Z,300
2017-02-02T15:20:50.286Z,288
2017-02-02T15:22:00.911Z,288
2017-02-02T15:23:11.177Z,280
2017-02-02T15:24:21.841Z,284
2017-02-02T15:25:32.133Z,276
2017-02-02T15:26:42.797Z,272
2017-02-02T15:27:53.794Z,260
2017-02-02T15:29:04.427Z,256
2017-02-02T15:30:15.100Z,256
2017-02-02T15:31:24.984Z,256
2017-02-02T15:32:35.686Z,252
2017-02-02T15:33:46.730Z,248
2017-02-02T15:34:56.997Z,240
2017-02-02T15:36:07.652Z,228
2017-02-02T15:37:17.524Z,224
2017-02-02T15:38:27.012Z,216
2017-02-02T15:39:37.406Z,208
2017-02-02T15:40:47.287Z,204
2017-02-02T15:41:57.548Z,196
2017-02-02T15:43:07.820Z,192
2017-02-02T15:44:17.347Z,192
2017-02-02T15:45:27.949Z,188
2017-02-02T15:46:38.639Z,184
2017-02-02T15:47:48.898Z,180
2017-02-02T15:48:59.147Z,176
2017-02-02T15:50:09.817Z,164
2017-02-02T15:51:20.376Z,160
2017-02-02T15:52:30.636Z,156
2017-02-02T15:53:41.297Z,152
2017-02-02T15:54:51.945Z,144
2017-02-02T15:56:02.200Z,136
2017-02-02T15:57:12.565Z,128
2017-02-02T15:58:22.848Z,120
2017-02-02T15:59:33.125Z,116
2017-02-02T16:00:43.396Z,108
2017-02-02T16:01:53.658Z,104
2017-02-02T16:03:04.470Z,96
2017-02-02T16:04:15.177Z,88
2017-02-02T16:05:25.451Z,84
2017-02-02T16:06:35.725Z,76
2017-02-02T16:07:46.443Z,72
2017-02-02T16:08:57.199Z,64
2017-02-02T16:10:07.084Z,60
2017-02-02T16:11:17.752Z,60
2017-02-02T16:12:27.641Z,52
2017-02-02T16:13:38.304Z,48
2017-02-02T16:14:49.260Z,44
2017-02-02T16:15:59.552Z,44
2017-02-02T16:17:10.219Z,36
2017-02-02T16:18:20.489Z,32
2017-02-02T16:19:30.755Z,28
2017-02-02T16:20:41.109Z,28
2017-02-02T16:21:51.768Z,24
2017-02-02T16:23:01.282Z,24
2017-02-02T16:24:11.553Z,20
2017-02-02T16:25:21.428Z,20
2017-02-02T16:26:31.607Z,16
2017-02-02T16:27:41.924Z,16
2017-02-02T16:28:52.619Z,16
2017-02-02T16:30:03.281Z,12
2017-02-02T16:31:13.942Z,8
2017-02-02T16:32:24.834Z,12
2017-02-02T16:33:35.089Z,8
2017-02-02T16:34:44.973Z,8
2017-02-02T16:35:54.442Z,8
2017-02-02T16:37:04.314Z,8